createdAt,value
2019-04-23T00:00:29.346Z,53.4920
2019-04-23T00:01:58.376Z,53.0495
2019-04-23T00:02:52.427Z,53.0571
2019-04-23T00:03:51.609Z,52.6635
2019-04-23T00:04:59.736Z,52.7474
2019-04-23T00:06:19.028Z,52.6421
2019-04-23T00:07:44.349Z,52.8984
2019-04-23T00:08:39.597Z,52.9122
2019-04-23T00:09:39.877Z,53.0938
2019-04-23T00:10:43.036Z,53.1441
2019-04-23T00:11:51.414Z,53.2464
2019-04-23T00:14:15.162Z,53.5195
2019-04-23T00:15:35.632Z,53.7728
2019-04-23T00:16:26.492Z,54.0276
2019-04-23T00:17:37.351Z,53.8033
2019-04-23T00:18:42.658Z,53.2860
2019-04-23T00:19:50.228Z,53.3684
2019-04-23T00:20:57.846Z,53.4249
2019-04-23T00:22:11.000Z,53.6675
2019-04-23T00:23:11.056Z,54.1848
2019-04-23T00:24:28.215Z,54.2672
2019-04-23T00:25:45.026Z,54.5586
2019-04-23T00:26:36.600Z,54.9447
2019-04-23T00:27:51.825Z,55.2514
2019-04-23T00:28:58.892Z,55.6756
2019-04-23T00:31:13.320Z,56.0754
2019-04-23T00:32:23.139Z,56.3577
2019-04-23T00:33:25.607Z,56.2676
2019-04-23T00:34:36.152Z,56.5606
2019-04-23T00:35:44.079Z,56.9711
2019-04-23T00:36:51.509Z,56.9818
2019-04-23T00:37:59.981Z,57.3388
2019-04-23T00:39:06.280Z,57.2412
2019-04-23T00:40:10.836Z,57.3938
2019-04-23T00:41:25.352Z,57.0916
2019-04-23T00:42:36.797Z,56.8032
2019-04-23T00:43:35.924Z,56.8887
2019-04-23T00:44:46.263Z,56.6598
2019-04-23T00:45:53.526Z,56.9940
2019-04-23T00:47:06.977Z,57.0367
2019-04-23T00:48:17.086Z,56.8978
2019-04-23T00:49:21.222Z,57.2778
2019-04-23T00:50:48.011Z,57.4624
2019-04-23T00:51:33.093Z,57.7493
2019-04-23T00:52:38.884Z,58.2269
2019-04-23T00:53:43.917Z,58.9273
2019-04-23T00:55:04.366Z,58.6282
2019-04-23T00:56:19.032Z,58.5779
2019-04-23T00:57:22.592Z,58.8434
2019-04-23T00:59:27.828Z,58.6343
2019-04-23T01:00:41.973Z,58.6984
2019-04-23T01:01:49.581Z,59.1226
2019-04-23T01:02:53.219Z,59.0219
2019-04-23T01:04:02.251Z,58.6694
2019-04-23T01:05:14.834Z,58.7671
2019-04-23T01:06:19.356Z,58.3627
2019-04-23T01:07:24.275Z,58.5000
2019-04-23T01:08:31.764Z,58.5428
2019-04-23T01:09:49.244Z,58.6297
2019-04-23T01:10:52.282Z,58.8037
2019-04-23T01:12:03.088Z,59.0372
2019-04-23T01:13:08.868Z,58.8617
2019-04-23T01:14:15.803Z,58.8205
2019-04-23T01:15:26.254Z,59.1836
2019-04-23T01:16:28.278Z,59.1821
2019-04-23T01:17:39.852Z,59.0921
2019-04-23T01:19:49.515Z,59.1775
2019-04-23T01:20:53.521Z,59.2554
2019-04-23T01:21:47.512Z,59.0234
2019-04-23T01:22:50.907Z,58.9685
2019-04-23T01:23:59.833Z,58.5733
2019-04-23T01:25:11.041Z,58.5550
2019-04-23T01:26:30.855Z,58.5977
2019-04-23T01:27:55.836Z,58.2162
2019-04-23T01:28:57.415Z,58.4237
2019-04-23T01:30:04.742Z,58.4131
2019-04-23T01:31:09.236Z,58.3215
2019-04-23T01:32:18.753Z,57.9477
2019-04-23T01:33:29.628Z,58.1933
2019-04-23T01:34:31.282Z,58.5870
2019-04-23T01:35:36.426Z,58.9868
2019-04-23T01:36:46.458Z,59.1455
2019-04-23T01:37:55.675Z,59.4797
2019-04-23T01:39:00.239Z,59.6048
2019-04-23T01:40:12.135Z,59.5407
2019-04-23T01:41:20.204Z,59.8611
2019-04-23T01:42:38.876Z,59.7314
2019-04-23T01:43:36.534Z,59.5438
2019-04-23T01:44:50.390Z,59.9252
2019-04-23T01:45:40.944Z,59.7467
2019-04-23T01:47:00.862Z,59.2416
2019-04-23T01:48:17.875Z,59.5758
2019-04-23T01:49:18.366Z,59.2142
2019-04-23T01:51:34.460Z,59.4522
2019-04-23T01:52:50.567Z,59.7971
2019-04-23T01:53:49.577Z,59.8245
2019-04-23T01:54:54.958Z,60.0946
2019-04-23T01:56:20.392Z,60.1343
2019-04-23T01:57:16.783Z,60.1587
2019-04-23T01:58:37.039Z,60.5371
2019-04-23T01:59:24.501Z,60.9262
2019-04-23T02:00:35.563Z,60.6119
2019-04-23T02:01:47.589Z,60.6561
2019-04-23T02:02:57.610Z,60.8454
2019-04-23T02:04:03.557Z,60.9537
2019-04-23T02:06:16.646Z,60.4089
2019-04-23T02:07:29.564Z,60.5249
2019-04-23T02:08:28.364Z,60.5737
2019-04-23T02:09:43.490Z,59.9664
2019-04-23T02:10:53.633Z,59.6002
2019-04-23T02:11:57.759Z,59.6048
2019-04-23T02:15:24.994Z,58.8571
2019-04-23T02:16:32.776Z,58.8479
2019-04-23T02:17:38.639Z,58.6160
2019-04-23T02:18:44.152Z,58.7488
2019-04-23T02:19:51.753Z,59.0005
2019-04-23T02:20:59.503Z,59.0585
2019-04-23T02:22:05.022Z,59.2325
2019-04-23T02:23:19.878Z,59.7925
2019-04-23T02:24:24.738Z,60.6394
2019-04-23T02:26:38.476Z,59.6628
2019-04-23T02:27:54.414Z,59.6139
2019-04-23T02:30:15.529Z,59.9191
2019-04-23T02:34:51.571Z,59.6597
2019-04-23T02:35:55.771Z,59.8383
2019-04-23T02:37:03.852Z,59.5666
2019-04-23T02:39:00.967Z,58.1338
2019-04-23T02:40:35.375Z,58.0255
2019-04-23T02:41:41.594Z,57.7600
2019-04-23T02:42:55.880Z,57.7142
2019-04-23T02:43:35.508Z,57.9568
2019-04-23T02:44:56.285Z,57.9843
2019-04-23T02:47:29.711Z,58.2635
2019-04-23T02:49:26.955Z,58.7396
2019-04-23T02:52:48.811Z,58.7198
2019-04-23T02:54:04.644Z,58.4909
2019-04-23T02:55:08.723Z,58.3032
2019-04-23T02:56:28.878Z,58.8937
2019-04-23T02:57:20.134Z,58.5412
2019-04-23T02:59:53.785Z,58.6801
2019-04-23T03:01:06.418Z,58.8479
2019-04-23T03:05:38.038Z,57.9797
2019-04-23T03:07:41.007Z,58.0392
2019-04-23T03:09:51.725Z,57.8103
2019-04-23T03:11:20.714Z,58.0377
2019-04-23T03:12:24.888Z,57.5311
2019-04-23T03:16:48.191Z,56.9299
2019-04-23T03:17:49.276Z,57.1817
2019-04-23T03:18:57.597Z,57.3434
2019-04-23T03:20:11.189Z,57.3526
2019-04-23T03:22:14.738Z,56.6186
2019-04-23T03:23:34.530Z,56.0326
2019-04-23T03:24:45.833Z,55.7961
2019-04-23T03:25:35.869Z,55.3979
2019-04-23T03:29:15.858Z,55.2544
2019-04-23T03:32:48.379Z,53.6751
2019-04-23T03:34:42.467Z,53.8643
2019-04-23T03:38:18.878Z,54.2626
2019-04-23T03:39:18.717Z,54.5968
2019-04-23T03:40:43.137Z,54.6639
2019-04-23T03:42:43.102Z,54.1894
2019-04-23T03:47:18.543Z,54.0093
2019-04-23T03:48:28.672Z,54.3297
2019-04-23T03:49:32.853Z,54.7555
2019-04-23T03:50:36.015Z,54.4717
2019-04-23T03:51:52.269Z,54.1024
2019-04-23T03:52:44.674Z,54.0459
2019-04-23T03:55:10.264Z,54.4030
2019-04-23T03:56:26.552Z,54.9493
2019-04-23T03:57:26.945Z,54.8150
2019-04-23T04:01:07.179Z,54.1924
2019-04-23T04:03:27.016Z,54.6288
2019-04-23T04:05:31.406Z,54.8882
2019-04-23T04:08:50.727Z,55.2560
2019-04-23T04:11:25.708Z,55.8770
2019-04-23T04:12:19.139Z,55.3338
2019-04-23T04:13:22.222Z,55.9014
2019-04-23T04:15:53.327Z,56.0418
2019-04-23T04:16:51.069Z,55.9838
2019-04-23T04:18:03.849Z,55.9106
2019-04-23T04:21:28.138Z,56.3394
2019-04-23T04:22:37.490Z,56.0006
2019-04-23T04:23:37.767Z,55.8633
2019-04-23T04:25:08.803Z,56.1074
2019-04-23T04:25:47.681Z,55.9884
2019-04-23T04:29:11.664Z,56.2493
2019-04-23T04:30:21.578Z,56.6552
2019-04-23T04:31:37.438Z,55.5749
2019-04-23T04:32:42.814Z,55.3277
2019-04-23T04:35:14.130Z,55.7626
2019-04-23T04:36:09.496Z,55.6817
2019-04-23T04:38:34.883Z,55.8816
2019-04-23T04:39:26.636Z,55.9045
2019-04-23T04:40:45.670Z,56.4233
2019-04-23T04:41:44.479Z,56.4401
2019-04-23T04:43:02.015Z,56.5515
2019-04-23T04:44:04.909Z,56.9757
2019-04-23T04:45:13.631Z,57.0901
2019-04-23T04:46:21.203Z,56.9085
2019-04-23T04:47:33.888Z,57.0352
2019-04-23T04:49:48.611Z,57.0306
2019-04-23T04:52:03.167Z,57.5402
2019-04-23T04:53:09.892Z,57.3846
2019-04-23T04:54:21.516Z,57.4929
2019-04-23T04:55:21.515Z,57.3617
2019-04-23T04:57:37.241Z,57.2824
2019-04-23T05:05:55.531Z,57.9187
2019-04-23T05:06:46.484Z,58.0758
2019-04-23T05:08:56.614Z,57.8561
2019-04-23T05:14:35.415Z,57.6577
2019-04-23T05:15:39.075Z,57.8561
2019-04-23T05:18:00.307Z,58.2269
2019-04-23T05:22:26.768Z,59.2706
2019-04-23T05:23:33.438Z,59.8413
2019-04-23T05:25:44.742Z,60.5844
2019-04-23T05:26:53.369Z,60.4700
2019-04-23T05:30:22.610Z,59.7101
2019-04-23T05:31:23.261Z,59.7864
2019-04-23T05:32:36.737Z,60.0244
2019-04-23T05:33:46.471Z,59.3622
2019-04-23T05:34:48.321Z,59.5361
2019-04-23T05:36:22.849Z,59.5132
2019-04-23T05:37:06.463Z,59.8886
2019-04-23T05:38:29.200Z,60.2441
2019-04-23T05:39:31.314Z,60.2716
2019-04-23T05:40:37.953Z,60.4913
2019-04-23T05:42:46.842Z,60.4150
2019-04-23T05:45:00.595Z,59.5941
2019-04-23T05:46:17.957Z,59.5666
2019-04-23T05:47:25.473Z,59.7604
2019-04-23T05:48:23.370Z,59.9985
2019-04-23T05:49:31.664Z,59.8917
2019-04-23T05:50:50.577Z,59.3103
2019-04-23T05:51:57.680Z,59.1409
2019-04-23T05:53:05.915Z,59.5300
2019-04-23T05:54:09.118Z,59.4888
2019-04-23T05:55:13.658Z,59.2386
2019-04-23T05:56:24.269Z,58.8815
2019-04-23T05:57:40.372Z,58.5382
2019-04-23T05:58:43.706Z,58.8357
2019-04-23T05:59:51.654Z,58.8388
2019-04-23T06:01:11.430Z,58.6755
2019-04-23T06:02:18.247Z,58.5336
2019-04-23T06:03:16.003Z,58.2223
2019-04-23T06:04:27.099Z,58.3490
2019-04-23T06:05:34.266Z,58.3505
2019-04-23T06:07:49.417Z,57.5113
2019-04-23T06:11:16.989Z,57.9278
2019-04-23T06:12:13.568Z,58.1811
2019-04-23T06:13:26.345Z,58.3688
2019-04-23T06:14:41.030Z,58.3322
2019-04-23T06:15:57.783Z,58.2681
2019-04-23T06:17:02.133Z,58.4009
2019-04-23T06:18:02.245Z,58.4634
2019-04-23T06:20:24.978Z,59.0494
2019-04-23T06:21:25.264Z,59.0677
2019-04-23T06:22:35.211Z,58.7427
2019-04-23T06:23:43.677Z,57.9553
2019-04-23T06:24:45.153Z,56.9863
2019-04-23T06:27:06.747Z,56.6934
2019-04-23T06:28:14.518Z,57.0260
2019-04-23T06:30:34.251Z,56.6278
2019-04-23T06:31:40.879Z,56.1791
2019-04-23T06:32:44.763Z,56.5515
2019-04-23T06:33:54.541Z,56.8383
2019-04-23T06:34:58.167Z,55.9518
2019-04-23T06:37:22.172Z,55.7916
2019-04-23T06:38:46.098Z,56.0983
2019-04-23T06:39:39.639Z,56.4233
2019-04-23T06:40:44.949Z,56.9299
2019-04-23T06:41:52.776Z,57.5662
2019-04-23T06:43:01.274Z,58.3505
2019-04-23T06:45:06.263Z,59.0036
2019-04-23T06:46:20.142Z,59.3332
2019-04-23T06:47:27.739Z,57.8317
2019-04-23T06:48:34.870Z,57.7035
2019-04-23T06:49:44.172Z,57.3526
2019-04-23T06:50:59.265Z,57.3648
2019-04-23T06:53:08.129Z,57.8088
2019-04-23T06:54:19.068Z,57.6730
2019-04-23T06:55:25.499Z,57.6776
2019-04-23T06:56:37.491Z,58.3032
2019-04-23T06:57:38.185Z,58.1018
2019-04-23T06:58:43.259Z,58.0163
2019-04-23T06:59:59.195Z,57.9599
2019-04-23T07:02:17.084Z,56.6110
2019-04-23T07:03:23.277Z,56.4172
2019-04-23T07:05:40.938Z,56.3684
2019-04-23T07:06:47.187Z,57.3007
2019-04-23T07:07:58.369Z,57.5296
2019-04-23T07:09:07.867Z,57.2961
2019-04-23T07:10:03.945Z,57.4762
2019-04-23T07:11:23.615Z,56.4492
2019-04-23T07:12:21.977Z,56.4080
2019-04-23T07:13:45.001Z,56.0113
2019-04-23T07:14:47.678Z,56.2295
2019-04-23T07:16:52.559Z,57.0855
2019-04-23T07:18:04.047Z,57.0581
2019-04-23T07:19:18.576Z,56.4675
2019-04-23T07:20:21.565Z,56.8200
2019-04-23T07:22:46.879Z,57.0321
2019-04-23T07:23:53.884Z,56.4965
2019-04-23T07:24:57.590Z,56.7102
2019-04-23T07:26:09.308Z,56.6918
2019-04-23T07:27:03.270Z,56.9894
2019-04-23T07:28:18.020Z,56.9482
2019-04-23T07:29:25.343Z,56.6918
2019-04-23T07:31:46.040Z,56.1944
2019-04-23T07:32:49.598Z,56.0281
2019-04-23T07:34:01.061Z,56.3165
2019-04-23T07:35:10.443Z,56.3317
2019-04-23T07:36:17.566Z,55.6023
2019-04-23T07:37:19.004Z,55.7809
2019-04-23T07:38:41.711Z,55.1492
2019-04-23T07:39:45.653Z,55.7076
2019-04-23T07:40:41.126Z,55.3979
2019-04-23T07:41:56.815Z,55.8282
2019-04-23T07:43:03.442Z,56.1471
2019-04-23T07:44:12.822Z,55.6939
2019-04-23T07:45:19.320Z,55.9976
2019-04-23T07:46:55.679Z,56.2387
2019-04-23T07:47:33.704Z,56.3119
2019-04-23T07:48:34.401Z,56.1151
2019-04-23T07:50:01.844Z,56.0250
2019-04-23T07:50:55.630Z,56.0296
2019-04-23T07:52:11.004Z,56.0113
2019-04-23T07:54:22.755Z,56.4859
2019-04-23T07:55:34.564Z,56.5332
2019-04-23T07:56:37.288Z,56.9757
2019-04-23T07:57:52.124Z,56.6003
2019-04-23T07:58:44.765Z,57.0504
2019-04-23T08:00:02.417Z,55.8190
2019-04-23T08:01:06.931Z,56.1486
2019-04-23T08:02:23.473Z,56.2387
2019-04-23T08:03:27.359Z,55.9243
2019-04-23T08:04:39.441Z,56.5637
2019-04-23T08:05:38.693Z,56.8658
2019-04-23T08:06:46.434Z,56.3531
2019-04-23T08:07:58.779Z,56.6781
2019-04-23T08:09:02.344Z,56.5240
2019-04-23T08:10:18.914Z,56.0891
2019-04-23T08:11:33.210Z,55.7946
2019-04-23T08:12:31.535Z,55.9640
2019-04-23T08:13:42.042Z,55.7305
2019-04-23T08:14:48.146Z,55.2270
2019-04-23T08:15:53.932Z,55.6435
2019-04-23T08:17:02.077Z,55.4574
2019-04-23T08:18:13.689Z,55.8999
2019-04-23T08:19:15.445Z,55.2728
2019-04-23T08:20:32.286Z,55.5154
2019-04-23T08:22:40.643Z,55.1034
2019-04-23T08:23:49.120Z,54.9203
2019-04-23T08:25:12.833Z,54.9676
2019-04-23T08:26:13.828Z,55.2056
2019-04-23T08:27:12.922Z,54.9981
2019-04-23T08:28:34.032Z,55.1598
2019-04-23T08:30:33.305Z,54.9889
2019-04-23T08:31:52.775Z,54.8119
2019-04-23T08:32:52.136Z,55.3155
2019-04-23T08:34:05.758Z,55.0256
2019-04-23T08:35:06.377Z,54.5876
2019-04-23T08:36:23.746Z,54.9844
2019-04-23T08:37:36.034Z,54.7646
2019-04-23T08:40:57.533Z,54.6380
2019-04-23T08:43:07.531Z,53.7255
2019-04-23T08:44:23.977Z,53.5348
2019-04-23T08:46:33.049Z,53.9467
2019-04-23T08:47:37.749Z,53.8094
2019-04-23T08:50:09.591Z,53.6889
2019-04-23T08:50:57.917Z,53.6355
2019-04-23T08:52:12.178Z,54.0200
2019-04-23T08:53:29.659Z,52.8054
2019-04-23T08:54:37.060Z,53.2052
2019-04-23T08:56:50.025Z,52.5444
2019-04-23T08:57:45.352Z,52.3018
2019-04-23T08:58:59.330Z,52.0287
2019-04-23T09:00:04.015Z,51.4611
2019-04-23T09:01:10.668Z,51.1482
2019-04-23T09:02:30.568Z,50.8324
2019-04-23T09:04:42.069Z,51.1803
2019-04-23T09:05:52.670Z,50.6722
2019-04-23T09:07:00.161Z,50.7332
2019-04-23T09:08:07.195Z,50.1823
2019-04-23T09:09:16.054Z,50.3883
2019-04-23T09:10:20.841Z,48.9235
2019-04-23T09:11:41.054Z,49.6010
2019-04-23T09:12:35.112Z,49.7337
2019-04-23T09:14:51.236Z,48.8609
2019-04-23T09:15:55.889Z,48.2643
2019-04-23T09:17:06.881Z,47.2221
2019-04-23T09:18:16.036Z,46.4836
2019-04-23T09:19:23.284Z,46.3004
2019-04-23T09:21:32.720Z,44.6891
2019-04-23T09:24:03.844Z,45.1072
2019-04-23T09:25:06.024Z,43.8331
2019-04-23T09:26:02.254Z,43.9811
2019-04-23T09:27:22.169Z,43.5447
2019-04-23T09:28:38.591Z,43.7476
2019-04-23T09:29:42.449Z,44.2329
2019-04-23T09:30:42.926Z,43.9384
2019-04-23T09:33:02.421Z,44.1810
2019-04-23T09:34:08.004Z,44.0894
2019-04-23T09:35:20.194Z,44.5762
2019-04-23T09:36:22.372Z,44.8280
2019-04-23T09:38:31.892Z,44.0116
2019-04-23T09:41:08.720Z,43.9612
2019-04-23T09:42:02.328Z,44.2771
2019-04-23T09:45:28.086Z,43.9200
2019-04-23T09:46:32.596Z,44.0452
2019-04-23T09:47:48.296Z,44.0589
2019-04-23T09:48:54.693Z,43.8880
2019-04-23T09:50:06.461Z,43.8987
2019-04-23T09:51:02.450Z,43.9933
2019-04-23T09:52:14.611Z,44.0208
2019-04-23T09:53:24.762Z,44.5655
2019-04-23T09:54:37.874Z,43.6957
2019-04-23T09:58:00.630Z,43.3860
2019-04-23T09:59:08.836Z,43.2792
2019-04-23T10:00:10.752Z,43.1601
2019-04-23T10:01:20.500Z,43.0610
2019-04-23T10:02:17.510Z,43.0869
2019-04-23T10:03:21.144Z,43.0228
2019-04-23T10:04:28.155Z,42.8412
2019-04-23T10:05:32.585Z,42.4796
2019-04-23T10:06:34.553Z,42.8046
2019-04-23T10:07:48.630Z,42.7222
2019-04-23T10:08:52.249Z,42.3377
2019-04-23T10:09:53.532Z,42.9770
2019-04-23T10:10:57.475Z,42.9374
2019-04-23T10:12:00.992Z,43.0732
2019-04-23T10:13:04.377Z,42.2034
2019-04-23T10:14:08.281Z,42.3270
2019-04-23T10:15:21.522Z,42.7710
2019-04-23T10:16:21.439Z,42.4231
2019-04-23T10:17:28.490Z,42.9175
2019-04-23T10:18:31.311Z,42.4842
2019-04-23T10:19:35.037Z,43.3631
2019-04-23T10:20:38.588Z,41.9745
2019-04-23T10:21:43.653Z,42.3499
2019-04-23T10:22:48.240Z,41.6281
2019-04-23T10:23:51.653Z,42.0890
2019-04-23T10:24:55.395Z,42.7939
2019-04-23T10:25:58.362Z,42.8855
2019-04-23T10:27:01.986Z,42.4338
2019-04-23T10:28:08.634Z,42.7436
2019-04-23T10:29:14.049Z,40.5737
2019-04-23T10:30:17.749Z,40.7797
2019-04-23T10:31:22.767Z,41.1963
2019-04-23T10:32:27.324Z,41.0590
2019-04-23T10:33:31.682Z,41.4908
2019-04-23T10:34:47.533Z,41.2375
2019-04-23T10:35:51.521Z,40.4730
2019-04-23T10:36:51.571Z,40.8728
2019-04-23T10:38:03.722Z,41.1246
2019-04-23T10:39:10.630Z,41.9028
2019-04-23T10:40:15.383Z,40.6805
2019-04-23T10:41:20.175Z,40.9583
2019-04-23T10:42:24.701Z,40.8774
2019-04-23T10:43:30.775Z,40.3677
2019-04-23T10:44:35.371Z,40.2762
2019-04-23T10:45:53.874Z,41.4343
2019-04-23T10:47:12.237Z,39.0036
2019-04-23T10:48:31.500Z,39.6994
2019-04-23T10:50:46.166Z,38.9349
2019-04-23T10:51:55.052Z,39.3301
2019-04-23T10:53:05.120Z,38.7701
2019-04-23T10:55:07.933Z,39.1226
2019-04-23T10:56:22.352Z,39.2874
2019-04-23T10:57:23.183Z,37.8058
2019-04-23T10:58:35.286Z,38.3398
2019-04-23T11:00:55.664Z,37.5479
2019-04-23T11:02:15.623Z,37.5540
2019-04-23T11:03:20.344Z,37.5799
2019-04-23T11:04:32.858Z,37.4365
2019-04-23T11:05:30.392Z,37.8683
2019-04-23T11:06:47.171Z,38.3413
2019-04-23T11:08:45.540Z,37.1389
2019-04-23T11:09:58.702Z,37.1496
2019-04-23T11:11:07.952Z,37.8470
2019-04-23T11:12:23.413Z,36.8521
2019-04-23T11:13:25.669Z,36.4340
2019-04-23T11:14:37.718Z,35.8679
2019-04-23T11:19:10.552Z,34.3435
2019-04-23T11:20:17.669Z,34.1726
2019-04-23T11:21:20.751Z,33.5134
2019-04-23T11:23:30.909Z,34.7005
2019-04-23T11:24:42.103Z,32.4056
2019-04-23T11:25:42.826Z,31.8654
2019-04-23T11:26:58.003Z,32.4392
2019-04-23T11:28:11.038Z,33.3898
2019-04-23T11:29:16.379Z,34.1634
2019-04-23T11:30:27.452Z,34.6212
2019-04-23T11:31:41.467Z,34.4381
2019-04-23T11:32:47.119Z,34.7082
2019-04-23T11:33:42.695Z,34.9065
2019-04-23T11:36:18.967Z,34.2092
2019-04-23T11:37:12.914Z,33.5470
2019-04-23T11:38:43.631Z,33.8109
2019-04-23T11:39:23.971Z,34.2229
2019-04-23T11:40:32.817Z,34.4701
2019-04-23T11:41:49.011Z,34.3664
2019-04-23T11:42:49.445Z,34.0734
2019-04-23T11:43:53.431Z,34.5541
2019-04-23T11:45:09.607Z,34.6990
2019-04-23T11:46:32.664Z,35.3857
2019-04-23T11:48:51.966Z,34.7601
2019-04-23T11:52:09.747Z,34.0917
2019-04-23T11:52:57.138Z,35.0851
2019-04-23T11:54:11.614Z,35.0561
2019-04-23T11:55:26.136Z,33.9727
2019-04-23T11:57:02.696Z,34.2382
2019-04-23T11:59:55.046Z,35.4101
2019-04-23T12:01:03.167Z,35.0744
2019-04-23T12:02:01.148Z,35.1949
2019-04-23T12:03:02.501Z,34.9966
2019-04-23T12:04:39.590Z,35.2346
2019-04-23T12:05:37.129Z,35.1614
2019-04-23T12:06:36.948Z,35.3078
2019-04-23T12:08:03.851Z,35.4467
2019-04-23T12:08:50.998Z,35.6786
2019-04-23T12:11:35.426Z,35.5200
2019-04-23T12:12:21.720Z,35.5459
2019-04-23T12:13:28.655Z,35.7977
2019-04-23T12:14:37.314Z,35.3368
2019-04-23T12:15:37.586Z,35.0301
2019-04-23T12:17:05.613Z,35.8679
2019-04-23T12:18:05.357Z,36.0006
2019-04-23T12:19:28.403Z,36.1929
2019-04-23T12:20:13.536Z,34.5205
2019-04-23T12:21:22.115Z,34.4625
2019-04-23T12:22:33.412Z,34.3023
2019-04-23T12:23:48.559Z,34.7448
2019-04-23T12:25:58.613Z,34.1146
2019-04-23T12:27:00.698Z,34.0185
2019-04-23T12:28:06.603Z,33.8704
2019-04-23T12:29:23.735Z,33.7072
2019-04-23T12:30:30.152Z,32.3339
2019-04-23T12:31:34.836Z,33.3364
2019-04-23T12:33:53.599Z,33.4997
2019-04-23T12:36:05.317Z,32.0546
2019-04-23T12:37:19.632Z,32.7733
2019-04-23T12:38:31.234Z,32.5200
2019-04-23T12:39:45.451Z,31.8624
2019-04-23T12:40:37.843Z,31.4321
2019-04-23T12:41:43.306Z,31.8761
2019-04-23T12:43:57.945Z,32.9046
2019-04-23T12:45:16.976Z,33.0007
2019-04-23T12:46:17.693Z,30.1350
2019-04-23T12:47:37.960Z,30.7179
2019-04-23T12:52:02.448Z,29.2012
2019-04-23T12:53:27.064Z,30.8415
2019-04-23T12:54:20.791Z,32.0394
2019-04-23T12:55:36.215Z,28.7297
2019-04-23T12:56:41.588Z,30.0526
2019-04-23T12:58:34.064Z,30.7134
2019-04-23T12:59:50.071Z,31.0292
2019-04-23T13:01:07.216Z,30.5715
2019-04-23T13:02:16.401Z,33.2479
2019-04-23T13:03:21.593Z,30.4509
2019-04-23T13:04:24.616Z,30.8629
2019-04-23T13:06:41.030Z,30.0908
2019-04-23T13:08:54.577Z,33.1701
2019-04-23T13:11:16.265Z,32.4102
2019-04-23T13:12:32.625Z,29.9763
2019-04-23T13:13:28.575Z,29.3751
2019-04-23T13:14:44.062Z,32.4239
2019-04-23T13:15:40.685Z,31.5282
2019-04-23T13:17:02.054Z,31.7571
2019-04-23T13:19:13.922Z,32.2835
2019-04-23T13:21:46.246Z,30.7485
2019-04-23T13:22:45.886Z,31.4366
2019-04-23T13:24:49.009Z,30.7362
2019-04-23T13:27:15.209Z,31.9722
2019-04-23T13:28:27.692Z,30.4250
2019-04-23T13:29:32.438Z,30.2647
2019-04-23T13:30:44.741Z,30.5653
2019-04-23T13:31:28.968Z,31.1711
2019-04-23T13:33:51.509Z,32.4971
2019-04-23T13:35:15.052Z,30.7362
2019-04-23T13:37:26.225Z,30.9911
2019-04-23T13:38:35.025Z,31.5419
2019-04-23T13:39:35.318Z,30.1595
2019-04-23T13:41:47.770Z,29.5827
2019-04-23T13:43:01.145Z,29.6010
2019-04-23T13:43:53.013Z,30.7301
2019-04-23T13:45:33.346Z,31.8013
2019-04-23T13:46:17.792Z,29.9123
2019-04-23T13:47:38.495Z,30.7500
2019-04-23T13:48:35.950Z,29.8299
2019-04-23T13:49:52.738Z,29.6834
2019-04-23T13:52:06.190Z,30.5165
2019-04-23T13:53:28.979Z,32.1630
2019-04-23T13:54:27.761Z,29.8711
2019-04-23T13:55:21.750Z,29.6223
2019-04-23T13:58:05.050Z,30.0633
2019-04-23T13:58:51.609Z,30.1778
2019-04-23T13:59:56.248Z,30.1396
2019-04-23T14:01:25.931Z,30.4204
2019-04-23T14:02:24.063Z,31.5831
2019-04-23T14:03:30.320Z,32.0592
2019-04-23T14:04:43.174Z,30.5333
2019-04-23T14:06:47.513Z,31.9844
2019-04-23T14:07:54.779Z,29.2607
2019-04-23T14:08:59.689Z,30.0893
2019-04-23T14:12:35.183Z,29.3706
2019-04-23T14:14:47.571Z,30.6630
2019-04-23T14:15:54.091Z,29.3339
2019-04-23T14:17:04.532Z,29.5399
2019-04-23T14:18:48.953Z,29.6544
2019-04-23T14:19:06.897Z,29.8695
2019-04-23T14:20:21.598Z,29.0333
2019-04-23T14:21:39.166Z,28.9586
2019-04-23T14:24:08.748Z,30.3227
2019-04-23T14:25:04.634Z,30.5882
2019-04-23T14:27:17.908Z,29.2836
2019-04-23T14:28:22.161Z,31.2718
2019-04-23T14:29:30.607Z,29.2515
2019-04-23T14:30:38.993Z,29.9031
2019-04-23T14:32:54.303Z,30.0771
2019-04-23T14:35:21.596Z,30.8034
2019-04-23T14:36:17.670Z,29.9672
2019-04-23T14:37:17.230Z,29.5399
2019-04-23T14:39:40.999Z,29.7063
2019-04-23T14:41:53.680Z,29.1020
2019-04-23T14:43:08.844Z,29.7917
2019-04-23T14:44:11.055Z,29.9489
2019-04-23T14:45:29.692Z,29.8787
2019-04-23T14:47:38.132Z,30.0816
2019-04-23T14:48:47.975Z,30.2602
2019-04-23T14:49:59.431Z,31.2383
2019-04-23T14:50:56.913Z,31.3848
2019-04-23T14:52:09.281Z,31.2032
2019-04-23T14:54:35.831Z,31.0689
2019-04-23T14:56:38.378Z,29.8802
2019-04-23T14:57:52.840Z,30.7134
2019-04-23T14:59:04.720Z,29.5583
2019-04-23T15:00:03.385Z,29.8482
2019-04-23T15:01:22.236Z,30.3502
2019-04-23T15:02:22.928Z,30.1442
2019-04-23T15:03:32.541Z,30.0755
2019-04-23T15:04:34.034Z,30.4295
2019-04-23T15:05:52.767Z,30.1045
2019-04-23T15:08:02.145Z,29.9474
2019-04-23T15:10:18.563Z,30.2602
2019-04-23T15:13:36.849Z,30.4295
2019-04-23T15:14:56.307Z,30.7454
2019-04-23T15:16:03.128Z,30.5257
2019-04-23T15:17:00.461Z,29.7932
2019-04-23T15:18:14.109Z,30.0206
2019-04-23T15:20:23.115Z,29.8573
2019-04-23T15:21:45.273Z,32.0409
2019-04-23T15:22:54.453Z,31.6320
2019-04-23T15:25:09.377Z,29.4301
2019-04-23T15:26:49.495Z,30.0206
2019-04-23T15:28:07.604Z,29.8848
2019-04-23T15:29:12.885Z,30.1167
2019-04-23T15:30:35.555Z,30.4829
2019-04-23T15:31:52.422Z,30.6035
2019-04-23T15:33:04.207Z,30.1534
2019-04-23T15:34:09.288Z,30.4433
2019-04-23T15:35:23.437Z,29.5277
2019-04-23T15:38:55.857Z,30.0435
2019-04-23T15:40:53.352Z,30.1183
2019-04-23T15:43:17.236Z,30.0633
2019-04-23T15:45:21.007Z,30.2281
2019-04-23T15:46:32.684Z,30.8309
2019-04-23T15:47:40.489Z,30.5470
2019-04-23T15:48:58.125Z,30.5653
2019-04-23T15:50:03.598Z,30.4829
2019-04-23T15:51:04.378Z,30.4707
2019-04-23T15:53:24.915Z,30.6126
2019-04-23T15:54:25.415Z,31.0597
2019-04-23T15:55:28.209Z,31.0460
2019-04-23T15:56:41.017Z,30.7622
2019-04-23T15:59:58.702Z,31.3313
2019-04-23T16:01:15.557Z,30.8675
2019-04-23T16:01:52.332Z,30.5669
2019-04-23T16:02:55.306Z,30.9499
2019-04-23T16:03:59.127Z,30.5608
2019-04-23T16:05:03.652Z,30.6493
2019-04-23T16:06:10.316Z,30.6218
2019-04-23T16:07:32.581Z,30.2129
2019-04-23T16:08:58.945Z,30.4967
2019-04-23T16:10:04.242Z,30.3868
2019-04-23T16:11:15.708Z,30.5058
2019-04-23T16:12:03.419Z,30.9285
2019-04-23T16:13:31.145Z,30.9361
2019-04-23T16:14:35.362Z,30.4112
2019-04-23T16:15:45.402Z,30.7134
2019-04-23T16:18:06.552Z,30.0542
2019-04-23T16:19:07.620Z,30.6477
2019-04-23T16:20:22.193Z,30.0816
2019-04-23T16:22:24.861Z,30.2083
2019-04-23T16:23:38.270Z,30.4982
2019-04-23T16:24:52.254Z,30.3914
2019-04-23T16:25:49.797Z,30.7485
2019-04-23T16:27:04.435Z,30.3960
2019-04-23T16:28:11.543Z,30.3044
2019-04-23T16:30:36.811Z,30.9422
2019-04-23T16:31:38.046Z,30.6294
2019-04-23T16:32:38.046Z,30.7622
2019-04-23T16:33:47.947Z,32.3781
2019-04-23T16:35:06.757Z,30.7164
2019-04-23T16:36:19.208Z,31.0521
2019-04-23T16:37:15.436Z,30.7637
2019-04-23T16:39:24.161Z,31.4946
2019-04-23T16:41:51.649Z,32.7230
2019-04-23T16:42:56.684Z,31.1421
2019-04-23T16:44:09.506Z,31.6335
2019-04-23T16:45:14.976Z,30.9178
2019-04-23T16:46:21.340Z,30.9728
2019-04-23T16:47:24.223Z,31.0368
2019-04-23T16:48:44.093Z,30.7210
2019-04-23T16:49:48.020Z,31.2993
2019-04-23T16:51:54.184Z,32.3369
2019-04-23T16:53:11.568Z,29.8878
2019-04-23T16:54:14.124Z,30.1671
2019-04-23T16:55:19.963Z,30.3365
2019-04-23T17:00:08.190Z,30.5745
2019-04-23T17:01:07.262Z,30.5669
2019-04-23T17:02:17.617Z,30.3014
2019-04-23T17:03:28.954Z,30.7347
2019-04-23T17:04:24.310Z,30.0175
2019-04-23T17:05:33.327Z,30.9361
2019-04-23T17:06:35.812Z,30.0160
2019-04-23T17:08:08.365Z,31.1147